sensor_id;sensor_type;location;lat;lon;timestamp;P1;durP1;ratioP1;P2;durP2;ratioP2
83550;SDS011;74617;47.082;15.524;2023-12-14T00:00:17;5.32;;;2.92;;
83550;SDS011;74617;47.082;15.524;2023-12-14T00:02:44;5.53;;;2.95;;
83550;SDS011;74617;47.082;15.524;2023-12-14T00:05:09;7.13;;;2.25;;
83550;SDS011;74617;47.082;15.524;2023-12-14T00:07:35;4.80;;;2.25;;
83550;SDS011;74617;47.082;15.524;2023-12-14T00:10:00;9.02;;;2.53;;
83550;SDS011;74617;47.082;15.524;2023-12-14T00:12:27;4.13;;;2.08;;
83550;SDS011;74617;47.082;15.524;2023-12-14T00:14:52;5.30;;;2.35;;
83550;SDS011;74617;47.082;15.524;2023-12-14T00:17:17;6.40;;;2.55;;
83550;SDS011;74617;47.082;15.524;2023-12-14T00:19:43;6.47;;;2.08;;
83550;SDS011;74617;47.082;15.524;2023-12-14T00:22:08;4.97;;;2.60;;
83550;SDS011;74617;47.082;15.524;2023-12-14T00:24:33;4.43;;;2.33;;
83550;SDS011;74617;47.082;15.524;2023-12-14T00:26:59;4.45;;;1.90;;
83550;SDS011;74617;47.082;15.524;2023-12-14T00:29:24;4.95;;;2.20;;
83550;SDS011;74617;47.082;15.524;2023-12-14T00:31:49;4.90;;;2.28;;
83550;SDS011;74617;47.082;15.524;2023-12-14T00:34:15;6.38;;;2.63;;
83550;SDS011;74617;47.082;15.524;2023-12-14T00:36:40;4.78;;;2.60;;
83550;SDS011;74617;47.082;15.524;2023-12-14T00:39:06;5.55;;;2.80;;
83550;SDS011;74617;47.082;15.524;2023-12-14T00:41:31;5.85;;;2.55;;
83550;SDS011;74617;47.082;15.524;2023-12-14T00:43:56;4.88;;;2.05;;
83550;SDS011;74617;47.082;15.524;2023-12-14T00:46:22;5.10;;;2.53;;
83550;SDS011;74617;47.082;15.524;2023-12-14T00:48:47;5.38;;;2.28;;
83550;SDS011;74617;47.082;15.524;2023-12-14T00:51:12;4.45;;;2.20;;
83550;SDS011;74617;47.082;15.524;2023-12-14T00:53:38;4.43;;;2.58;;
83550;SDS011;74617;47.082;15.524;2023-12-14T00:56:03;4.68;;;1.63;;
83550;SDS011;74617;47.082;15.524;2023-12-14T00:58:29;8.50;;;2.25;;
83550;SDS011;74617;47.082;15.524;2023-12-14T01:00:54;6.82;;;2.47;;
83550;SDS011;74617;47.082;15.524;2023-12-14T01:03:20;8.45;;;2.80;;
83550;SDS011;74617;47.082;15.524;2023-12-14T01:05:45;4.63;;;2.15;;
83550;SDS011;74617;47.082;15.524;2023-12-14T01:08:11;4.40;;;1.65;;
83550;SDS011;74617;47.082;15.524;2023-12-14T01:10:36;6.10;;;2.00;;
83550;SDS011;74617;47.082;15.524;2023-12-14T01:13:02;3.03;;;1.85;;
83550;SDS011;74617;47.082;15.524;2023-12-14T01:15:27;7.75;;;2.42;;
83550;SDS011;74617;47.082;15.524;2023-12-14T01:17:52;3.80;;;2.15;;
83550;SDS011;74617;47.082;15.524;2023-12-14T01:20:18;4.82;;;2.08;;
83550;SDS011;74617;47.082;15.524;2023-12-14T01:22:43;3.92;;;1.77;;
83550;SDS011;74617;47.082;15.524;2023-12-14T01:25:09;4.90;;;1.80;;
83550;SDS011;74617;47.082;15.524;2023-12-14T01:27:34;6.43;;;1.98;;
83550;SDS011;74617;47.082;15.524;2023-12-14T01:29:59;5.68;;;2.53;;
83550;SDS011;74617;47.082;15.524;2023-12-14T01:32:25;6.00;;;2.13;;
83550;SDS011;74617;47.082;15.524;2023-12-14T01:34:50;2.70;;;1.38;;
83550;SDS011;74617;47.082;15.524;2023-12-14T01:37:16;3.42;;;1.80;;
83550;SDS011;74617;47.082;15.524;2023-12-14T01:39:41;4.80;;;2.20;;
83550;SDS011;74617;47.082;15.524;2023-12-14T01:42:07;4.68;;;2.03;;
83550;SDS011;74617;47.082;15.524;2023-12-14T01:44:32;5.18;;;2.00;;
83550;SDS011;74617;47.082;15.524;2023-12-14T01:46:58;5.40;;;2.00;;
83550;SDS011;74617;47.082;15.524;2023-12-14T01:49:23;6.65;;;2.15;;
83550;SDS011;74617;47.082;15.524;2023-12-14T01:51:49;2.75;;;1.45;;
83550;SDS011;74617;47.082;15.524;2023-12-14T01:54:14;4.50;;;1.92;;
83550;SDS011;74617;47.082;15.524;2023-12-14T01:56:39;3.22;;;1.83;;
83550;SDS011;74617;47.082;15.524;2023-12-14T01:59:05;3.95;;;1.80;;
83550;SDS011;74617;47.082;15.524;2023-12-14T02:04:17;4.90;;;1.95;;
83550;SDS011;74617;47.082;15.524;2023-12-14T02:06:42;5.10;;;2.00;;
83550;SDS011;74617;47.082;15.524;2023-12-14T02:09:08;3.40;;;1.77;;
83550;SDS011;74617;47.082;15.524;2023-12-14T02:11:34;3.78;;;1.60;;
83550;SDS011;74617;47.082;15.524;2023-12-14T02:14:04;4.40;;;2.08;;
83550;SDS011;74617;47.082;15.524;2023-12-14T02:16:30;6.43;;;2.20;;
83550;SDS011;74617;47.082;15.524;2023-12-14T02:18:56;5.43;;;1.75;;
83550;SDS011;74617;47.082;15.524;2023-12-14T02:21:22;3.75;;;1.88;;
83550;SDS011;74617;47.082;15.524;2023-12-14T02:23:47;3.53;;;1.52;;
83550;SDS011;74617;47.082;15.524;2023-12-14T02:26:13;4.18;;;1.77;;
83550;SDS011;74617;47.082;15.524;2023-12-14T02:28:38;3.22;;;1.55;;
83550;SDS011;74617;47.082;15.524;2023-12-14T02:31:04;3.10;;;1.77;;
83550;SDS011;74617;47.082;15.524;2023-12-14T02:33:29;3.78;;;1.58;;
83550;SDS011;74617;47.082;15.524;2023-12-14T02:35:54;4.65;;;1.60;;
83550;SDS011;74617;47.082;15.524;2023-12-14T02:38:20;3.58;;;1.77;;
83550;SDS011;74617;47.082;15.524;2023-12-14T02:40:46;3.40;;;1.50;;
83550;SDS011;74617;47.082;15.524;2023-12-14T02:43:11;3.63;;;1.50;;
83550;SDS011;74617;47.082;15.524;2023-12-14T02:45:37;4.43;;;1.95;;
83550;SDS011;74617;47.082;15.524;2023-12-14T02:48:02;3.38;;;1.63;;
83550;SDS011;74617;47.082;15.524;2023-12-14T02:50:28;4.65;;;1.77;;
83550;SDS011;74617;47.082;15.524;2023-12-14T02:52:53;3.20;;;1.55;;
83550;SDS011;74617;47.082;15.524;2023-12-14T02:55:19;2.80;;;1.33;;
83550;SDS011;74617;47.082;15.524;2023-12-14T02:57:44;4.15;;;1.77;;
83550;SDS011;74617;47.082;15.524;2023-12-14T03:00:10;3.15;;;1.50;;
83550;SDS011;74617;47.082;15.524;2023-12-14T03:02:36;2.35;;;1.40;;
83550;SDS011;74617;47.082;15.524;2023-12-14T03:05:02;2.65;;;1.38;;
83550;SDS011;74617;47.082;15.524;2023-12-14T03:07:27;3.53;;;1.50;;
83550;SDS011;74617;47.082;15.524;2023-12-14T03:09:52;4.15;;;2.13;;
83550;SDS011;74617;47.082;15.524;2023-12-14T03:12:18;3.30;;;1.45;;
83550;SDS011;74617;47.082;15.524;2023-12-14T03:14:43;5.05;;;1.63;;
83550;SDS011;74617;47.082;15.524;2023-12-14T03:17:08;3.20;;;1.35;;
83550;SDS011;74617;47.082;15.524;2023-12-14T03:19:38;5.80;;;1.90;;
83550;SDS011;74617;47.082;15.524;2023-12-14T03:22:04;3.92;;;1.80;;
83550;SDS011;74617;47.082;15.524;2023-12-14T03:24:30;7.72;;;1.65;;
83550;SDS011;74617;47.082;15.524;2023-12-14T03:26:55;3.13;;;1.70;;
83550;SDS011;74617;47.082;15.524;2023-12-14T03:29:20;4.18;;;1.67;;
83550;SDS011;74617;47.082;15.524;2023-12-14T03:31:46;2.45;;;1.23;;
83550;SDS011;74617;47.082;15.524;2023-12-14T03:34:12;4.53;;;1.50;;
83550;SDS011;74617;47.082;15.524;2023-12-14T03:36:37;3.50;;;1.52;;
83550;SDS011;74617;47.082;15.524;2023-12-14T03:39:02;2.95;;;1.35;;
83550;SDS011;74617;47.082;15.524;2023-12-14T03:41:28;5.03;;;2.22;;
83550;SDS011;74617;47.082;15.524;2023-12-14T03:43:53;2.97;;;1.30;;
83550;SDS011;74617;47.082;15.524;2023-12-14T03:46:19;3.95;;;1.60;;
83550;SDS011;74617;47.082;15.524;2023-12-14T03:48:44;3.95;;;1.85;;
83550;SDS011;74617;47.082;15.524;2023-12-14T03:51:09;3.30;;;1.30;;
83550;SDS011;74617;47.082;15.524;2023-12-14T03:53:35;2.65;;;1.20;;
83550;SDS011;74617;47.082;15.524;2023-12-14T03:56:00;3.38;;;1.52;;
83550;SDS011;74617;47.082;15.524;2023-12-14T03:58:26;3.58;;;1.67;;
83550;SDS011;74617;47.082;15.524;2023-12-14T04:00:51;2.70;;;1.63;;
83550;SDS011;74617;47.082;15.524;2023-12-14T04:03:17;3.88;;;1.38;;
83550;SDS011;74617;47.082;15.524;2023-12-14T04:05:42;5.32;;;1.48;;
83550;SDS011;74617;47.082;15.524;2023-12-14T04:08:09;4.32;;;1.80;;
83550;SDS011;74617;47.082;15.524;2023-12-14T04:10:35;3.22;;;1.95;;
83550;SDS011;74617;47.082;15.524;2023-12-14T04:13:00;2.83;;;1.27;;
83550;SDS011;74617;47.082;15.524;2023-12-14T04:15:26;3.17;;;1.55;;
83550;SDS011;74617;47.082;15.524;2023-12-14T04:17:51;3.03;;;1.40;;
83550;SDS011;74617;47.082;15.524;2023-12-14T04:20:17;3.13;;;1.50;;
83550;SDS011;74617;47.082;15.524;2023-12-14T04:22:45;2.95;;;1.60;;
83550;SDS011;74617;47.082;15.524;2023-12-14T04:25:10;2.30;;;1.30;;
83550;SDS011;74617;47.082;15.524;2023-12-14T04:27:36;2.92;;;1.50;;
83550;SDS011;74617;47.082;15.524;2023-12-14T04:30:02;2.22;;;1.30;;
83550;SDS011;74617;47.082;15.524;2023-12-14T04:32:29;3.05;;;1.67;;
83550;SDS011;74617;47.082;15.524;2023-12-14T04:34:55;2.03;;;1.23;;
83550;SDS011;74617;47.082;15.524;2023-12-14T04:37:20;3.25;;;1.42;;
83550;SDS011;74617;47.082;15.524;2023-12-14T04:39:46;3.50;;;1.48;;
83550;SDS011;74617;47.082;15.524;2023-12-14T04:42:11;5.35;;;2.05;;
83550;SDS011;74617;47.082;15.524;2023-12-14T04:44:36;4.30;;;1.60;;
83550;SDS011;74617;47.082;15.524;2023-12-14T04:47:02;4.15;;;1.50;;
83550;SDS011;74617;47.082;15.524;2023-12-14T04:49:27;3.05;;;1.38;;
83550;SDS011;74617;47.082;15.524;2023-12-14T04:51:53;4.05;;;1.25;;
83550;SDS011;74617;47.082;15.524;2023-12-14T04:54:18;3.05;;;1.27;;
83550;SDS011;74617;47.082;15.524;2023-12-14T04:56:46;2.70;;;1.30;;
83550;SDS011;74617;47.082;15.524;2023-12-14T04:59:12;3.17;;;1.52;;
83550;SDS011;74617;47.082;15.524;2023-12-14T05:01:37;2.45;;;1.10;;
83550;SDS011;74617;47.082;15.524;2023-12-14T05:04:02;2.70;;;1.30;;
83550;SDS011;74617;47.082;15.524;2023-12-14T05:06:28;6.05;;;2.20;;
83550;SDS011;74617;47.082;15.524;2023-12-14T05:08:54;5.88;;;2.30;;
83550;SDS011;74617;47.082;15.524;2023-12-14T05:11:20;5.10;;;2.08;;
83550;SDS011;74617;47.082;15.524;2023-12-14T05:13:45;8.00;;;2.85;;
83550;SDS011;74617;47.082;15.524;2023-12-14T05:16:14;15.25;;;4.78;;
83550;SDS011;74617;47.082;15.524;2023-12-14T05:18:39;14.10;;;5.53;;
83550;SDS011;74617;47.082;15.524;2023-12-14T05:21:05;13.82;;;5.25;;
83550;SDS011;74617;47.082;15.524;2023-12-14T05:23:31;16.65;;;5.43;;
83550;SDS011;74617;47.082;15.524;2023-12-14T05:25:56;18.17;;;6.03;;
83550;SDS011;74617;47.082;15.524;2023-12-14T05:28:21;13.23;;;5.20;;
83550;SDS011;74617;47.082;15.524;2023-12-14T05:30:47;17.90;;;5.88;;
83550;SDS011;74617;47.082;15.524;2023-12-14T05:33:13;13.85;;;5.68;;
83550;SDS011;74617;47.082;15.524;2023-12-14T05:35:39;11.00;;;4.50;;
83550;SDS011;74617;47.082;15.524;2023-12-14T05:38:04;17.58;;;5.45;;
83550;SDS011;74617;47.082;15.524;2023-12-14T05:40:30;9.82;;;4.15;;
83550;SDS011;74617;47.082;15.524;2023-12-14T05:42:56;12.65;;;5.03;;
83550;SDS011;74617;47.082;15.524;2023-12-14T05:45:22;11.80;;;4.88;;
83550;SDS011;74617;47.082;15.524;2023-12-14T05:47:47;11.00;;;4.25;;
83550;SDS011;74617;47.082;15.524;2023-12-14T05:50:12;8.40;;;3.90;;
83550;SDS011;74617;47.082;15.524;2023-12-14T05:52:38;16.15;;;5.13;;
83550;SDS011;74617;47.082;15.524;2023-12-14T05:55:07;11.93;;;4.20;;
83550;SDS011;74617;47.082;15.524;2023-12-14T05:57:33;11.20;;;3.80;;
83550;SDS011;74617;47.082;15.524;2023-12-14T05:59:58;9.77;;;4.28;;
83550;SDS011;74617;47.082;15.524;2023-12-14T06:02:23;9.23;;;3.85;;
83550;SDS011;74617;47.082;15.524;2023-12-14T06:04:49;12.82;;;3.83;;
83550;SDS011;74617;47.082;15.524;2023-12-14T06:07:14;9.77;;;3.50;;
83550;SDS011;74617;47.082;15.524;2023-12-14T06:09:41;9.88;;;3.65;;
83550;SDS011;74617;47.082;15.524;2023-12-14T06:12:06;9.45;;;2.95;;
83550;SDS011;74617;47.082;15.524;2023-12-14T06:14:31;10.13;;;4.20;;
83550;SDS011;74617;47.082;15.524;2023-12-14T06:16:57;7.05;;;3.90;;
83550;SDS011;74617;47.082;15.524;2023-12-14T06:19:23;8.60;;;3.47;;
83550;SDS011;74617;47.082;15.524;2023-12-14T06:21:48;7.68;;;2.92;;
83550;SDS011;74617;47.082;15.524;2023-12-14T06:24:14;10.15;;;4.20;;
83550;SDS011;74617;47.082;15.524;2023-12-14T06:26:57;6.70;;;2.95;;
83550;SDS011;74617;47.082;15.524;2023-12-14T06:29:22;8.88;;;3.53;;
83550;SDS011;74617;47.082;15.524;2023-12-14T06:31:48;10.15;;;3.20;;
83550;SDS011;74617;47.082;15.524;2023-12-14T06:34:14;13.68;;;3.53;;
83550;SDS011;74617;47.082;15.524;2023-12-14T06:36:43;4.97;;;2.40;;
83550;SDS011;74617;47.082;15.524;2023-12-14T06:39:11;8.73;;;3.28;;
83550;SDS011;74617;47.082;15.524;2023-12-14T06:41:37;6.38;;;3.20;;
83550;SDS011;74617;47.082;15.524;2023-12-14T06:44:02;5.15;;;2.60;;
83550;SDS011;74617;47.082;15.524;2023-12-14T06:46:28;6.70;;;2.63;;
83550;SDS011;74617;47.082;15.524;2023-12-14T06:48:54;10.18;;;3.13;;
83550;SDS011;74617;47.082;15.524;2023-12-14T06:51:20;5.00;;;2.70;;
83550;SDS011;74617;47.082;15.524;2023-12-14T06:53:46;5.43;;;2.60;;
83550;SDS011;74617;47.082;15.524;2023-12-14T06:56:12;5.93;;;3.15;;
83550;SDS011;74617;47.082;15.524;2023-12-14T06:58:39;4.38;;;2.38;;
83550;SDS011;74617;47.082;15.524;2023-12-14T07:01:05;5.50;;;2.67;;
83550;SDS011;74617;47.082;15.524;2023-12-14T07:03:30;56.08;;;15.55;;
83550;SDS011;74617;47.082;15.524;2023-12-14T07:05:56;21.75;;;7.60;;
83550;SDS011;74617;47.082;15.524;2023-12-14T07:08:22;10.90;;;3.95;;
83550;SDS011;74617;47.082;15.524;2023-12-14T07:10:48;13.27;;;4.93;;
83550;SDS011;74617;47.082;15.524;2023-12-14T07:13:13;11.90;;;4.47;;
83550;SDS011;74617;47.082;15.524;2023-12-14T07:15:39;7.70;;;3.70;;
83550;SDS011;74617;47.082;15.524;2023-12-14T07:18:05;8.60;;;3.65;;
83550;SDS011;74617;47.082;15.524;2023-12-14T07:20:31;8.57;;;3.60;;
83550;SDS011;74617;47.082;15.524;2023-12-14T07:22:56;8.63;;;3.83;;
83550;SDS011;74617;47.082;15.524;2023-12-14T07:25:21;12.80;;;3.92;;
83550;SDS011;74617;47.082;15.524;2023-12-14T07:27:47;5.82;;;2.88;;
83550;SDS011;74617;47.082;15.524;2023-12-14T07:30:12;10.55;;;3.28;;
83550;SDS011;74617;47.082;15.524;2023-12-14T07:32:38;11.95;;;2.92;;
83550;SDS011;74617;47.082;15.524;2023-12-14T07:35:04;3.70;;;2.38;;
83550;SDS011;74617;47.082;15.524;2023-12-14T07:37:30;4.10;;;1.90;;
83550;SDS011;74617;47.082;15.524;2023-12-14T07:39:55;4.30;;;2.15;;
83550;SDS011;74617;47.082;15.524;2023-12-14T07:42:21;5.63;;;2.05;;
83550;SDS011;74617;47.082;15.524;2023-12-14T07:44:47;4.18;;;2.30;;
83550;SDS011;74617;47.082;15.524;2023-12-14T07:47:12;3.72;;;2.20;;
83550;SDS011;74617;47.082;15.524;2023-12-14T07:49:38;3.42;;;1.90;;
83550;SDS011;74617;47.082;15.524;2023-12-14T07:52:04;4.00;;;2.20;;
83550;SDS011;74617;47.082;15.524;2023-12-14T07:54:29;3.28;;;2.00;;
83550;SDS011;74617;47.082;15.524;2023-12-14T07:56:55;4.72;;;2.40;;
83550;SDS011;74617;47.082;15.524;2023-12-14T07:59:20;3.63;;;2.00;;
83550;SDS011;74617;47.082;15.524;2023-12-14T08:01:46;2.63;;;1.77;;
83550;SDS011;74617;47.082;15.524;2023-12-14T08:04:12;3.10;;;1.90;;
83550;SDS011;74617;47.082;15.524;2023-12-14T08:06:37;3.13;;;1.75;;
83550;SDS011;74617;47.082;15.524;2023-12-14T08:09:04;2.75;;;1.70;;
83550;SDS011;74617;47.082;15.524;2023-12-14T08:11:31;2.30;;;1.67;;
83550;SDS011;74617;47.082;15.524;2023-12-14T08:13:57;3.92;;;2.08;;
83550;SDS011;74617;47.082;15.524;2023-12-14T08:16:22;2.55;;;1.80;;
83550;SDS011;74617;47.082;15.524;2023-12-14T08:18:47;3.58;;;1.50;;
83550;SDS011;74617;47.082;15.524;2023-12-14T08:21:14;2.70;;;1.95;;
83550;SDS011;74617;47.082;15.524;2023-12-14T08:23:39;2.30;;;1.45;;
83550;SDS011;74617;47.082;15.524;2023-12-14T08:26:05;2.50;;;1.50;;
83550;SDS011;74617;47.082;15.524;2023-12-14T08:28:30;3.80;;;1.60;;
83550;SDS011;74617;47.082;15.524;2023-12-14T08:30:56;2.15;;;1.20;;
83550;SDS011;74617;47.082;15.524;2023-12-14T08:33:27;2.47;;;1.45;;
83550;SDS011;74617;47.082;15.524;2023-12-14T08:35:52;7.05;;;1.42;;
83550;SDS011;74617;47.082;15.524;2023-12-14T08:38:17;2.63;;;1.50;;
83550;SDS011;74617;47.082;15.524;2023-12-14T08:40:43;3.20;;;1.48;;
83550;SDS011;74617;47.082;15.524;2023-12-14T08:43:08;2.70;;;1.40;;
83550;SDS011;74617;47.082;15.524;2023-12-14T08:45:33;11.52;;;2.05;;
83550;SDS011;74617;47.082;15.524;2023-12-14T08:47:59;4.65;;;1.60;;
83550;SDS011;74617;47.082;15.524;2023-12-14T08:50:24;5.85;;;1.65;;
83550;SDS011;74617;47.082;15.524;2023-12-14T08:52:51;6.75;;;1.80;;
83550;SDS011;74617;47.082;15.524;2023-12-14T08:55:17;3.80;;;1.60;;
83550;SDS011;74617;47.082;15.524;2023-12-14T08:57:43;3.42;;;1.50;;
83550;SDS011;74617;47.082;15.524;2023-12-14T09:00:08;4.88;;;1.75;;
83550;SDS011;74617;47.082;15.524;2023-12-14T09:02:35;5.72;;;1.80;;
83550;SDS011;74617;47.082;15.524;2023-12-14T09:05:01;2.83;;;1.48;;
83550;SDS011;74617;47.082;15.524;2023-12-14T09:07:27;5.45;;;1.95;;
83550;SDS011;74617;47.082;15.524;2023-12-14T09:09:52;4.95;;;1.70;;
83550;SDS011;74617;47.082;15.524;2023-12-14T09:12:17;3.97;;;1.83;;
83550;SDS011;74617;47.082;15.524;2023-12-14T09:14:43;2.88;;;1.40;;
83550;SDS011;74617;47.082;15.524;2023-12-14T09:17:08;2.25;;;1.20;;
83550;SDS011;74617;47.082;15.524;2023-12-14T09:19:33;2.22;;;1.35;;
83550;SDS011;74617;47.082;15.524;2023-12-14T09:21:59;2.78;;;1.77;;
83550;SDS011;74617;47.082;15.524;2023-12-14T09:24:24;2.30;;;1.33;;
83550;SDS011;74617;47.082;15.524;2023-12-14T09:26:50;6.68;;;1.70;;
83550;SDS011;74617;47.082;15.524;2023-12-14T09:29:15;3.38;;;1.20;;
83550;SDS011;74617;47.082;15.524;2023-12-14T09:31:44;3.05;;;1.50;;
83550;SDS011;74617;47.082;15.524;2023-12-14T09:34:10;3.60;;;1.30;;
83550;SDS011;74617;47.082;15.524;2023-12-14T09:36:36;3.15;;;1.60;;
83550;SDS011;74617;47.082;15.524;2023-12-14T09:39:02;3.05;;;1.67;;
83550;SDS011;74617;47.082;15.524;2023-12-14T09:41:28;3.25;;;2.05;;
83550;SDS011;74617;47.082;15.524;2023-12-14T09:43:54;3.63;;;2.00;;
83550;SDS011;74617;47.082;15.524;2023-12-14T09:46:20;4.35;;;2.05;;
83550;SDS011;74617;47.082;15.524;2023-12-14T09:48:47;2.95;;;1.60;;
83550;SDS011;74617;47.082;15.524;2023-12-14T09:51:15;3.42;;;2.03;;
83550;SDS011;74617;47.082;15.524;2023-12-14T09:53:41;3.28;;;1.80;;
83550;SDS011;74617;47.082;15.524;2023-12-14T09:56:06;5.32;;;2.50;;
83550;SDS011;74617;47.082;15.524;2023-12-14T09:58:32;3.80;;;1.80;;
83550;SDS011;74617;47.082;15.524;2023-12-14T10:00:58;5.25;;;1.83;;
83550;SDS011;74617;47.082;15.524;2023-12-14T10:03:26;3.22;;;1.70;;
83550;SDS011;74617;47.082;15.524;2023-12-14T10:05:54;6.78;;;1.90;;
83550;SDS011;74617;47.082;15.524;2023-12-14T10:08:20;4.13;;;2.03;;
83550;SDS011;74617;47.082;15.524;2023-12-14T10:10:46;3.22;;;1.60;;
83550;SDS011;74617;47.082;15.524;2023-12-14T10:13:17;3.67;;;1.90;;
83550;SDS011;74617;47.082;15.524;2023-12-14T10:15:44;2.85;;;1.52;;
83550;SDS011;74617;47.082;15.524;2023-12-14T10:18:12;2.45;;;1.25;;
83550;SDS011;74617;47.082;15.524;2023-12-14T10:20:42;2.67;;;1.20;;
83550;SDS011;74617;47.082;15.524;2023-12-14T10:23:10;6.03;;;2.05;;
83550;SDS011;74617;47.082;15.524;2023-12-14T10:25:35;3.33;;;1.52;;
83550;SDS011;74617;47.082;15.524;2023-12-14T10:28:01;2.70;;;1.23;;
83550;SDS011;74617;47.082;15.524;2023-12-14T10:30:27;2.67;;;1.60;;
83550;SDS011;74617;47.082;15.524;2023-12-14T10:32:53;3.72;;;1.77;;
83550;SDS011;74617;47.082;15.524;2023-12-14T10:35:19;3.55;;;1.55;;
83550;SDS011;74617;47.082;15.524;2023-12-14T10:37:47;5.35;;;2.00;;
83550;SDS011;74617;47.082;15.524;2023-12-14T10:40:15;2.33;;;1.35;;
83550;SDS011;74617;47.082;15.524;2023-12-14T10:42:43;3.17;;;1.35;;
83550;SDS011;74617;47.082;15.524;2023-12-14T10:45:12;3.55;;;1.42;;
83550;SDS011;74617;47.082;15.524;2023-12-14T10:47:44;4.35;;;1.67;;
83550;SDS011;74617;47.082;15.524;2023-12-14T10:50:11;2.47;;;1.30;;
83550;SDS011;74617;47.082;15.524;2023-12-14T10:52:39;5.03;;;1.80;;
83550;SDS011;74617;47.082;15.524;2023-12-14T10:55:21;3.50;;;2.13;;
83550;SDS011;74617;47.082;15.524;2023-12-14T10:57:52;4.00;;;1.40;;
83550;SDS011;74617;47.082;15.524;2023-12-14T11:00:18;2.72;;;1.33;;
83550;SDS011;74617;47.082;15.524;2023-12-14T11:02:46;3.13;;;1.40;;
83550;SDS011;74617;47.082;15.524;2023-12-14T11:05:13;3.35;;;1.48;;
83550;SDS011;74617;47.082;15.524;2023-12-14T11:10:13;6.97;;;1.92;;
83550;SDS011;74617;47.082;15.524;2023-12-14T11:15:30;5.60;;;1.17;;
83550;SDS011;74617;47.082;15.524;2023-12-14T11:23:11;6.88;;;1.33;;
83550;SDS011;74617;47.082;15.524;2023-12-14T11:25:42;3.33;;;1.42;;
83550;SDS011;74617;47.082;15.524;2023-12-14T11:28:08;2.42;;;1.27;;
83550;SDS011;74617;47.082;15.524;2023-12-14T11:30:37;2.15;;;1.08;;
83550;SDS011;74617;47.082;15.524;2023-12-14T11:33:03;2.47;;;1.27;;
83550;SDS011;74617;47.082;15.524;2023-12-14T11:35:28;2.17;;;1.25;;
83550;SDS011;74617;47.082;15.524;2023-12-14T11:37:54;3.92;;;1.65;;
83550;SDS011;74617;47.082;15.524;2023-12-14T11:40:25;3.08;;;1.30;;
83550;SDS011;74617;47.082;15.524;2023-12-14T11:43:03;3.00;;;1.27;;
83550;SDS011;74617;47.082;15.524;2023-12-14T11:45:33;2.20;;;1.20;;
83550;SDS011;74617;47.082;15.524;2023-12-14T11:48:01;3.63;;;1.60;;
83550;SDS011;74617;47.082;15.524;2023-12-14T11:50:30;4.68;;;1.13;;
83550;SDS011;74617;47.082;15.524;2023-12-14T11:52:57;2.05;;;1.10;;
83550;SDS011;74617;47.082;15.524;2023-12-14T11:55:22;1.75;;;1.20;;
83550;SDS011;74617;47.082;15.524;2023-12-14T11:57:48;2.63;;;1.33;;
83550;SDS011;74617;47.082;15.524;2023-12-14T12:00:14;1.88;;;1.02;;
83550;SDS011;74617;47.082;15.524;2023-12-14T12:02:42;2.70;;;1.42;;
83550;SDS011;74617;47.082;15.524;2023-12-14T12:05:07;1.92;;;1.10;;
83550;SDS011;74617;47.082;15.524;2023-12-14T12:07:32;2.10;;;1.17;;
83550;SDS011;74617;47.082;15.524;2023-12-14T12:09:58;2.30;;;1.15;;
83550;SDS011;74617;47.082;15.524;2023-12-14T12:12:24;2.80;;;1.15;;
83550;SDS011;74617;47.082;15.524;2023-12-14T12:14:49;2.20;;;1.00;;
83550;SDS011;74617;47.082;15.524;2023-12-14T12:17:17;3.50;;;1.40;;
83550;SDS011;74617;47.082;15.524;2023-12-14T12:19:44;2.83;;;1.15;;
83550;SDS011;74617;47.082;15.524;2023-12-14T12:22:10;1.48;;;0.95;;
83550;SDS011;74617;47.082;15.524;2023-12-14T12:24:36;4.32;;;1.70;;
83550;SDS011;74617;47.082;15.524;2023-12-14T12:27:01;2.88;;;1.48;;
83550;SDS011;74617;47.082;15.524;2023-12-14T12:29:26;3.28;;;1.60;;
83550;SDS011;74617;47.082;15.524;2023-12-14T12:31:52;5.35;;;1.27;;
83550;SDS011;74617;47.082;15.524;2023-12-14T12:34:17;2.22;;;1.20;;
83550;SDS011;74617;47.082;15.524;2023-12-14T12:36:43;3.28;;;1.63;;
83550;SDS011;74617;47.082;15.524;2023-12-14T12:39:09;3.03;;;1.50;;
83550;SDS011;74617;47.082;15.524;2023-12-14T12:41:34;3.40;;;1.10;;
83550;SDS011;74617;47.082;15.524;2023-12-14T12:44:03;2.40;;;0.98;;
83550;SDS011;74617;47.082;15.524;2023-12-14T12:46:33;2.33;;;1.08;;
83550;SDS011;74617;47.082;15.524;2023-12-14T12:49:02;4.10;;;1.17;;
83550;SDS011;74617;47.082;15.524;2023-12-14T12:51:29;3.08;;;1.30;;
83550;SDS011;74617;47.082;15.524;2023-12-14T12:53:55;2.78;;;1.02;;
83550;SDS011;74617;47.082;15.524;2023-12-14T12:56:22;2.10;;;1.00;;
83550;SDS011;74617;47.082;15.524;2023-12-14T12:58:48;3.13;;;0.98;;
83550;SDS011;74617;47.082;15.524;2023-12-14T13:01:14;2.85;;;1.08;;
83550;SDS011;74617;47.082;15.524;2023-12-14T13:03:40;1.98;;;0.93;;
83550;SDS011;74617;47.082;15.524;2023-12-14T13:06:06;1.88;;;0.95;;
83550;SDS011;74617;47.082;15.524;2023-12-14T13:08:31;1.73;;;1.00;;
83550;SDS011;74617;47.082;15.524;2023-12-14T13:10:57;2.00;;;1.13;;
83550;SDS011;74617;47.082;15.524;2023-12-14T13:13:22;2.17;;;1.00;;
83550;SDS011;74617;47.082;15.524;2023-12-14T13:15:48;3.92;;;1.20;;
83550;SDS011;74617;47.082;15.524;2023-12-14T13:18:13;3.00;;;1.17;;
83550;SDS011;74617;47.082;15.524;2023-12-14T13:20:41;1.73;;;0.93;;
83550;SDS011;74617;47.082;15.524;2023-12-14T13:23:07;1.75;;;1.13;;
83550;SDS011;74617;47.082;15.524;2023-12-14T13:25:32;2.38;;;1.40;;
83550;SDS011;74617;47.082;15.524;2023-12-14T13:27:58;3.40;;;1.38;;
83550;SDS011;74617;47.082;15.524;2023-12-14T13:30:23;1.73;;;1.08;;
83550;SDS011;74617;47.082;15.524;2023-12-14T13:32:48;8.15;;;3.40;;
83550;SDS011;74617;47.082;15.524;2023-12-14T13:35:14;1.77;;;0.98;;
83550;SDS011;74617;47.082;15.524;2023-12-14T13:37:39;2.35;;;1.20;;
83550;SDS011;74617;47.082;15.524;2023-12-14T13:40:05;2.08;;;1.05;;
83550;SDS011;74617;47.082;15.524;2023-12-14T13:42:31;2.08;;;1.10;;
83550;SDS011;74617;47.082;15.524;2023-12-14T13:44:56;2.50;;;1.10;;
83550;SDS011;74617;47.082;15.524;2023-12-14T13:47:22;2.05;;;1.00;;
83550;SDS011;74617;47.082;15.524;2023-12-14T13:49:47;2.80;;;1.20;;
83550;SDS011;74617;47.082;15.524;2023-12-14T13:52:13;2.70;;;1.10;;
83550;SDS011;74617;47.082;15.524;2023-12-14T13:54:38;2.20;;;1.10;;
83550;SDS011;74617;47.082;15.524;2023-12-14T13:57:04;1.42;;;0.93;;
83550;SDS011;74617;47.082;15.524;2023-12-14T13:59:29;1.80;;;0.93;;
83550;SDS011;74617;47.082;15.524;2023-12-14T14:01:55;3.15;;;1.60;;
83550;SDS011;74617;47.082;15.524;2023-12-14T14:04:20;1.73;;;1.02;;
83550;SDS011;74617;47.082;15.524;2023-12-14T14:06:45;2.03;;;0.88;;
83550;SDS011;74617;47.082;15.524;2023-12-14T14:09:11;3.28;;;1.30;;
83550;SDS011;74617;47.082;15.524;2023-12-14T14:11:37;1.85;;;0.98;;
83550;SDS011;74617;47.082;15.524;2023-12-14T14:14:02;3.33;;;1.20;;
83550;SDS011;74617;47.082;15.524;2023-12-14T14:16:29;2.47;;;1.05;;
83550;SDS011;74617;47.082;15.524;2023-12-14T14:18:56;2.63;;;1.02;;
83550;SDS011;74617;47.082;15.524;2023-12-14T14:21:22;2.65;;;1.30;;
83550;SDS011;74617;47.082;15.524;2023-12-14T14:23:48;0.95;;;0.70;;
83550;SDS011;74617;47.082;15.524;2023-12-14T14:26:13;3.13;;;1.17;;
83550;SDS011;74617;47.082;15.524;2023-12-14T14:28:39;2.38;;;1.00;;
83550;SDS011;74617;47.082;15.524;2023-12-14T14:31:04;2.30;;;1.13;;
83550;SDS011;74617;47.082;15.524;2023-12-14T14:33:30;2.42;;;0.80;;
83550;SDS011;74617;47.082;15.524;2023-12-14T14:35:55;3.85;;;1.08;;
83550;SDS011;74617;47.082;15.524;2023-12-14T14:38:20;2.05;;;1.02;;